Sentry Page Protection
Cameras OFFLINE

Operational times are from 0500 until 2200 (UTC). We'll see you soon!

Latest Glasgow METAR Decoded

What is a METAR?

Raw METAR: EGPF 170120Z 08009KT 9000 -RA BKN013 OVC023 12/11 Q1017
Time Published: Wed Aug 17 01:20:00 2022

Altimeter: 1017 hPa (30.03 inHg)
Clouds: Broken layer at 1300ft, Overcast layer at 2300ft - Reported AGL
Wx_codes: Light Rain
Visibility: 9km (5.6sm)
Dewpoint: 11°C (52°F)
Temperature: 12°C (54°F)
Wind: E-080 at 9kt

Data pulled from AVWX API.

Customise webcam positions

Apply changes